createdAt,value
2019-04-21T00:01:14.223Z,16.00
2019-04-21T00:03:46.093Z,15.90
2019-04-21T00:06:33.630Z,15.90
2019-04-21T00:08:57.914Z,15.80
2019-04-21T00:11:32.779Z,15.80
2019-04-21T00:13:48.164Z,15.70
2019-04-21T00:16:06.806Z,15.60
2019-04-21T00:18:49.858Z,15.60
2019-04-21T00:21:20.879Z,15.60
2019-04-21T00:23:53.769Z,15.60
2019-04-21T00:26:23.966Z,15.60
2019-04-21T00:28:59.434Z,15.60
2019-04-21T00:31:21.362Z,15.60
2019-04-21T00:33:34.285Z,15.50
2019-04-21T00:36:05.069Z,15.50
2019-04-21T00:39:03.031Z,15.40
2019-04-21T00:41:19.257Z,15.40
2019-04-21T00:43:38.973Z,15.40
2019-04-21T00:46:00.948Z,15.40
2019-04-21T00:48:41.321Z,15.40
2019-04-21T00:51:25.129Z,15.30
2019-04-21T00:53:45.542Z,15.30
2019-04-21T00:56:08.987Z,15.20
2019-04-21T00:58:39.579Z,15.00
2019-04-21T01:01:01.549Z,15.00
2019-04-21T01:03:32.749Z,14.90
2019-04-21T01:06:16.454Z,14.90
2019-04-21T01:08:25.130Z,14.80
2019-04-21T01:10:49.864Z,14.80
2019-04-21T01:13:27.823Z,14.80
2019-04-21T01:15:54.570Z,14.80
2019-04-21T01:18:20.769Z,14.80
2019-04-21T01:20:28.775Z,14.70
2019-04-21T01:22:55.882Z,14.60
2019-04-21T01:25:30.028Z,14.60
2019-04-21T01:28:06.348Z,14.50
2019-04-21T01:30:42.913Z,14.50
2019-04-21T01:33:08.265Z,14.30
2019-04-21T01:35:34.285Z,14.20
2019-04-21T01:38:04.713Z,14.20
2019-04-21T01:40:34.897Z,14.00
2019-04-21T01:42:55.726Z,14.00
2019-04-21T01:45:26.557Z,14.00
2019-04-21T01:47:55.015Z,13.90
2019-04-21T01:50:23.729Z,13.90
2019-04-21T01:53:05.655Z,13.80
2019-04-21T01:55:48.548Z,13.70
2019-04-21T01:58:11.078Z,13.50
2019-04-21T02:01:02.114Z,13.60
2019-04-21T02:06:15.627Z,13.60
2019-04-21T02:08:31.296Z,13.50
2019-04-21T02:11:08.007Z,13.50
2019-04-21T02:13:21.644Z,13.30
2019-04-21T02:16:02.070Z,13.30
2019-04-21T02:18:24.298Z,13.20
2019-04-21T02:20:45.907Z,13.20
2019-04-21T02:25:51.000Z,13.40
2019-04-21T02:28:30.450Z,13.30
2019-04-21T02:36:00.744Z,13.20
2019-04-21T02:40:51.905Z,12.90
2019-04-21T02:43:22.542Z,12.70
2019-04-21T02:45:51.820Z,12.60
2019-04-21T02:48:37.074Z,12.40
2019-04-21T02:50:42.973Z,12.40
2019-04-21T02:53:11.143Z,12.40
2019-04-21T02:55:37.432Z,12.30
2019-04-21T03:03:13.331Z,12.20
2019-04-21T03:05:50.940Z,12.20
2019-04-21T03:10:53.529Z,12.40
2019-04-21T03:25:45.339Z,12.40
2019-04-21T03:28:04.899Z,12.30
2019-04-21T03:30:55.531Z,12.30
2019-04-21T03:33:54.723Z,12.20
2019-04-21T03:36:08.182Z,12.40
2019-04-21T03:38:03.072Z,12.40
2019-04-21T03:40:21.027Z,12.40
2019-04-21T03:45:40.540Z,12.30
2019-04-21T03:50:22.338Z,12.20
2019-04-21T03:58:05.290Z,12.20
2019-04-21T04:00:33.755Z,12.30
2019-04-21T04:03:28.123Z,12.20
2019-04-21T04:08:22.766Z,12.20
2019-04-21T04:10:42.798Z,12.30
2019-04-21T04:13:09.600Z,12.20
2019-04-21T04:18:04.709Z,12.20
2019-04-21T04:20:39.815Z,12.10
2019-04-21T04:23:02.806Z,12.10
2019-04-21T04:25:25.288Z,12.10
2019-04-21T04:28:09.912Z,12.00
2019-04-21T04:30:31.314Z,11.90
2019-04-21T04:32:53.757Z,11.80
2019-04-21T04:35:34.263Z,11.90
2019-04-21T04:40:21.410Z,11.80
2019-04-21T04:43:05.135Z,11.70
2019-04-21T04:47:59.970Z,11.80
2019-04-21T04:50:35.951Z,11.90
2019-04-21T04:52:51.295Z,11.80
2019-04-21T04:57:59.308Z,11.90
2019-04-21T05:00:28.822Z,12.00
2019-04-21T05:05:19.355Z,12.00
2019-04-21T05:10:07.519Z,12.10
2019-04-21T05:12:36.488Z,12.00
2019-04-21T05:15:10.076Z,12.00
2019-04-21T05:20:08.626Z,11.90
2019-04-21T05:22:31.123Z,11.80
2019-04-21T05:24:50.194Z,11.90
2019-04-21T05:27:30.755Z,12.00
2019-04-21T05:30:10.233Z,12.20
2019-04-21T05:32:45.090Z,12.20
2019-04-21T05:35:14.511Z,12.30
2019-04-21T05:37:47.660Z,12.50
2019-04-21T05:40:17.320Z,12.60
2019-04-21T05:42:49.564Z,12.60
2019-04-21T05:45:24.973Z,12.70
2019-04-21T05:48:12.080Z,13.30
2019-04-21T05:50:26.571Z,13.10
2019-04-21T05:52:51.640Z,13.30
2019-04-21T05:55:33.978Z,13.60
2019-04-21T05:57:54.318Z,13.90
2019-04-21T06:00:23.612Z,13.90
2019-04-21T06:02:59.194Z,13.70
2019-04-21T06:07:58.390Z,14.10
2019-04-21T06:10:22.503Z,14.80
2019-04-21T06:12:52.211Z,15.20
2019-04-21T06:15:15.274Z,15.30
2019-04-21T06:17:50.143Z,16.30
2019-04-21T06:20:15.368Z,16.80
2019-04-21T06:22:36.100Z,17.30
2019-04-21T06:25:37.849Z,17.80
2019-04-21T06:27:51.010Z,17.80
2019-04-21T06:30:03.298Z,18.30
2019-04-21T06:32:46.767Z,18.40
2019-04-21T06:35:13.457Z,18.60
2019-04-21T06:42:25.739Z,19.70
2019-04-21T06:45:01.881Z,20.00
2019-04-21T06:47:32.517Z,19.90
2019-04-21T06:49:53.747Z,20.40
2019-04-21T06:52:44.882Z,20.60
2019-04-21T06:57:16.789Z,20.30
2019-04-21T06:59:46.461Z,20.50
2019-04-21T07:02:30.720Z,20.80
2019-04-21T07:04:44.489Z,21.20
2019-04-21T07:07:04.838Z,20.80
2019-04-21T07:09:38.009Z,21.80
2019-04-21T07:12:02.271Z,21.70
2019-04-21T07:14:31.976Z,22.10
2019-04-21T07:17:08.104Z,21.90
2019-04-21T07:19:35.284Z,22.40
2019-04-21T07:21:57.465Z,22.40
2019-04-21T07:26:55.351Z,22.90
2019-04-21T07:29:31.743Z,23.20
2019-04-21T07:34:23.933Z,23.40
2019-04-21T07:37:00.996Z,23.00
2019-04-21T07:39:10.319Z,23.80
2019-04-21T07:41:38.541Z,23.60
2019-04-21T07:44:07.718Z,23.70
2019-04-21T07:46:28.976Z,23.90
2019-04-21T07:49:07.924Z,23.70
2019-04-21T07:51:43.471Z,23.90
2019-04-21T07:56:22.973Z,23.60
2019-04-21T07:59:05.187Z,24.30
2019-04-21T08:01:40.124Z,24.40
2019-04-21T08:04:03.435Z,24.70
2019-04-21T08:06:33.734Z,24.60
2019-04-21T08:09:00.947Z,25.10
2019-04-21T08:11:22.416Z,25.40
2019-04-21T08:13:51.955Z,25.40
2019-04-21T08:16:28.582Z,25.50
2019-04-21T08:18:52.482Z,25.30
2019-04-21T08:21:24.688Z,25.40
2019-04-21T08:23:41.698Z,25.30
2019-04-21T08:26:14.565Z,25.70
2019-04-21T08:28:45.546Z,25.70
2019-04-21T08:31:15.741Z,25.70
2019-04-21T08:36:17.822Z,25.70
2019-04-21T08:38:38.794Z,25.80
2019-04-21T08:43:42.459Z,26.10
2019-04-21T08:46:01.973Z,26.10
2019-04-21T08:48:29.083Z,25.80
2019-04-21T08:51:07.744Z,25.90
2019-04-21T08:53:29.796Z,26.50
2019-04-21T08:56:05.774Z,26.70
2019-04-21T08:58:42.541Z,26.80
2019-04-21T09:01:17.813Z,26.30
2019-04-21T09:04:01.200Z,26.50
2019-04-21T09:08:57.759Z,26.90
2019-04-21T09:11:22.680Z,27.40
2019-04-21T09:13:47.687Z,27.20
2019-04-21T09:16:15.438Z,26.90
2019-04-21T09:18:41.976Z,26.30
2019-04-21T09:21:19.400Z,27.00
2019-04-21T09:23:47.056Z,27.40
2019-04-21T09:26:13.822Z,26.80
2019-04-21T09:28:35.502Z,27.20
2019-04-21T09:30:55.918Z,27.20
2019-04-21T09:33:20.718Z,27.10
2019-04-21T09:35:54.180Z,26.60
2019-04-21T09:38:26.747Z,26.90
2019-04-21T09:40:49.038Z,27.30
2019-04-21T09:43:18.678Z,26.90
2019-04-21T09:45:40.751Z,26.80
2019-04-21T09:48:13.363Z,26.50
2019-04-21T09:50:37.534Z,27.00
2019-04-21T09:53:12.933Z,27.40
2019-04-21T09:55:41.741Z,27.50
2019-04-21T09:58:10.043Z,27.30
2019-04-21T10:00:31.273Z,27.30
2019-04-21T10:03:02.836Z,27.10
2019-04-21T10:05:25.147Z,27.10
2019-04-21T10:07:53.013Z,27.20
2019-04-21T10:10:19.355Z,27.30
2019-04-21T10:12:45.528Z,27.30
2019-04-21T10:15:11.887Z,26.60
2019-04-21T10:17:39.935Z,26.80
2019-04-21T10:20:09.467Z,26.60
2019-04-21T10:22:37.132Z,26.30
2019-04-21T10:25:06.734Z,26.10
2019-04-21T10:27:33.023Z,25.80
2019-04-21T10:29:59.203Z,26.20
2019-04-21T10:32:25.520Z,26.10
2019-04-21T10:34:52.852Z,25.90
2019-04-21T10:37:19.138Z,25.70
2019-04-21T10:39:45.402Z,26.10
2019-04-21T10:42:11.693Z,25.90
2019-04-21T10:44:38.875Z,25.90
2019-04-21T10:47:05.268Z,25.80
2019-04-21T10:49:32.742Z,25.80
2019-04-21T10:52:01.300Z,26.10
2019-04-21T10:54:42.051Z,26.10
2019-04-21T10:56:56.629Z,26.10
2019-04-21T10:59:24.952Z,26.20
2019-04-21T11:01:50.963Z,26.30
2019-04-21T11:04:29.632Z,26.20
2019-04-21T11:06:57.068Z,25.90
2019-04-21T11:09:22.030Z,25.80
2019-04-21T11:11:50.859Z,25.70
2019-04-21T11:14:17.767Z,25.80
2019-04-21T11:16:47.235Z,25.60
2019-04-21T11:19:12.217Z,25.20
2019-04-21T11:21:40.772Z,25.20
2019-04-21T11:24:08.191Z,25.30
2019-04-21T11:26:35.808Z,25.30
2019-04-21T11:29:03.162Z,25.40
2019-04-21T11:31:29.433Z,25.60
2019-04-21T11:33:57.581Z,25.70
2019-04-21T11:36:24.982Z,25.50
2019-04-21T11:39:08.368Z,25.40
2019-04-21T11:41:23.959Z,25.50
2019-04-21T11:43:50.857Z,25.50
2019-04-21T11:46:18.285Z,25.20
2019-04-21T11:48:44.521Z,25.60
2019-04-21T11:51:11.108Z,25.80
2019-04-21T11:53:37.339Z,25.70
2019-04-21T11:56:04.873Z,25.40
2019-04-21T11:58:31.961Z,25.50
2019-04-21T12:01:03.442Z,25.70
2019-04-21T12:03:29.785Z,25.30
2019-04-21T12:05:57.351Z,25.10
2019-04-21T12:08:32.416Z,25.50
2019-04-21T12:10:51.761Z,25.60
2019-04-21T12:13:18.333Z,25.50
2019-04-21T12:15:45.127Z,25.70
2019-04-21T12:18:12.141Z,25.70
2019-04-21T12:20:39.622Z,25.80
2019-04-21T12:23:06.741Z,25.70
2019-04-21T12:25:38.935Z,25.90
2019-04-21T12:28:05.850Z,25.50
2019-04-21T12:30:31.999Z,25.40
2019-04-21T12:33:06.350Z,25.70
2019-04-21T12:35:35.321Z,25.60
2019-04-21T12:38:02.761Z,26.10
2019-04-21T12:40:30.648Z,26.10
2019-04-21T12:42:57.100Z,26.20
2019-04-21T12:45:24.061Z,25.80
2019-04-21T12:47:51.996Z,25.90
2019-04-21T12:50:19.669Z,25.70
2019-04-21T12:52:45.802Z,25.60
2019-04-21T12:55:13.530Z,25.70
2019-04-21T12:57:41.252Z,26.00
2019-04-21T13:00:13.022Z,25.80
2019-04-21T13:02:39.962Z,25.90
2019-04-21T13:05:07.470Z,26.00
2019-04-21T13:07:35.433Z,25.90
2019-04-21T13:10:04.376Z,25.90
2019-04-21T13:12:31.096Z,25.90
2019-04-21T13:14:59.163Z,25.90
2019-04-21T13:17:25.610Z,25.70
2019-04-21T13:19:51.831Z,25.80
2019-04-21T13:22:18.384Z,25.70
2019-04-21T13:24:44.596Z,25.60
2019-04-21T13:27:11.340Z,25.70
2019-04-21T13:29:38.804Z,25.90
2019-04-21T13:32:05.514Z,26.10
2019-04-21T13:34:33.778Z,25.80
2019-04-21T13:37:01.393Z,25.90
2019-04-21T13:40:09.557Z,25.90
2019-04-21T13:42:36.341Z,25.90
2019-04-21T13:44:59.240Z,25.60
2019-04-21T13:47:24.912Z,25.80
2019-04-21T13:49:51.200Z,25.60
2019-04-21T13:52:18.599Z,25.60
2019-04-21T13:54:45.520Z,25.90
2019-04-21T13:57:12.513Z,26.10
2019-04-21T13:59:40.225Z,25.90
2019-04-21T14:02:06.886Z,26.00
2019-04-21T14:04:33.701Z,25.90
2019-04-21T14:07:00.506Z,26.20
2019-04-21T14:09:37.926Z,26.20
2019-04-21T14:11:55.764Z,26.10
2019-04-21T14:14:23.988Z,25.70
2019-04-21T14:16:51.979Z,25.90
2019-04-21T14:19:19.267Z,25.90
2019-04-21T14:21:48.204Z,25.70
2019-04-21T14:24:14.846Z,25.90
2019-04-21T14:26:42.453Z,26.00
2019-04-21T14:29:09.856Z,26.00
2019-04-21T14:31:38.138Z,26.00
2019-04-21T14:34:05.870Z,26.10
2019-04-21T14:36:32.738Z,26.10
2019-04-21T14:38:59.081Z,25.90
2019-04-21T14:41:26.246Z,25.80
2019-04-21T14:43:52.949Z,25.80
2019-04-21T14:46:26.961Z,25.70
2019-04-21T14:48:55.107Z,25.80
2019-04-21T14:51:34.968Z,25.70
2019-04-21T14:54:03.724Z,25.60
2019-04-21T14:56:31.218Z,25.70
2019-04-21T14:58:59.079Z,25.50
2019-04-21T15:01:26.223Z,25.60
2019-04-21T15:03:52.438Z,25.60
2019-04-21T15:06:19.034Z,25.70
2019-04-21T15:08:45.277Z,25.90
2019-04-21T15:11:11.768Z,25.80
2019-04-21T15:13:37.993Z,25.90
2019-04-21T15:16:05.008Z,25.90
2019-04-21T15:18:32.617Z,25.90
2019-04-21T15:21:01.380Z,25.60
2019-04-21T15:23:30.043Z,25.40
2019-04-21T15:25:56.526Z,25.50
2019-04-21T15:28:23.654Z,25.60
2019-04-21T15:30:50.419Z,25.70
2019-04-21T15:33:16.635Z,25.90
2019-04-21T15:35:42.877Z,25.80
2019-04-21T15:38:09.789Z,25.80
2019-04-21T15:40:46.156Z,25.70
2019-04-21T15:43:04.470Z,25.90
2019-04-21T15:45:32.500Z,25.90
2019-04-21T15:48:00.132Z,25.70
2019-04-21T15:50:26.552Z,25.60
2019-04-21T15:52:53.942Z,25.60
2019-04-21T15:55:41.129Z,25.60
2019-04-21T15:58:20.892Z,25.60
2019-04-21T16:00:52.465Z,25.50
2019-04-21T16:03:18.727Z,25.60
2019-04-21T16:05:44.879Z,25.50
2019-04-21T16:08:12.157Z,25.40
2019-04-21T16:10:48.323Z,25.40
2019-04-21T16:13:07.756Z,25.40
2019-04-21T16:15:34.682Z,25.40
2019-04-21T16:18:01.623Z,25.50
2019-04-21T16:20:28.111Z,25.40
2019-04-21T16:22:54.834Z,25.40
2019-04-21T16:25:21.144Z,25.30
2019-04-21T16:27:47.637Z,25.30
2019-04-21T16:30:15.590Z,25.30
2019-04-21T16:32:42.072Z,25.10
2019-04-21T16:35:11.078Z,25.10
2019-04-21T16:37:37.425Z,25.10
2019-04-21T16:40:05.476Z,25.10
2019-04-21T16:42:32.139Z,25.00
2019-04-21T16:44:58.935Z,24.90
2019-04-21T16:47:26.193Z,24.80
2019-04-21T16:49:53.842Z,24.90
2019-04-21T16:52:23.636Z,24.70
2019-04-21T16:54:52.197Z,24.70
2019-04-21T16:57:26.119Z,24.60
2019-04-21T16:59:54.825Z,24.50
2019-04-21T17:02:21.099Z,24.60
2019-04-21T17:04:48.516Z,24.50
2019-04-21T17:07:15.021Z,24.50
2019-04-21T17:09:41.298Z,24.40
2019-04-21T17:12:11.412Z,24.40
2019-04-21T17:14:49.601Z,24.40
2019-04-21T17:17:26.771Z,24.30
2019-04-21T17:19:38.177Z,24.30
2019-04-21T17:21:59.998Z,24.40
2019-04-21T17:24:26.744Z,24.40
2019-04-21T17:26:53.276Z,24.20
2019-04-21T17:29:20.898Z,24.20
2019-04-21T17:31:47.682Z,24.20
2019-04-21T17:34:19.494Z,24.10
2019-04-21T17:36:43.152Z,24.10
2019-04-21T17:39:10.979Z,24.00
2019-04-21T17:41:42.498Z,23.90
2019-04-21T17:44:06.672Z,23.80
2019-04-21T17:46:43.121Z,23.80
2019-04-21T17:49:03.136Z,23.70
2019-04-21T17:51:31.969Z,23.70
2019-04-21T17:54:11.943Z,23.70
2019-04-21T17:56:59.488Z,23.60
2019-04-21T17:59:27.988Z,23.60
2019-04-21T18:01:47.239Z,23.50
2019-04-21T18:04:14.919Z,23.40
2019-04-21T18:06:50.085Z,23.40
2019-04-21T18:09:28.676Z,23.40
2019-04-21T18:11:51.417Z,23.30
2019-04-21T18:13:59.726Z,23.30
2019-04-21T18:16:34.279Z,23.20
2019-04-21T18:18:55.098Z,23.10
2019-04-21T18:21:46.915Z,23.00
2019-04-21T18:24:17.762Z,22.90
2019-04-21T18:26:47.407Z,22.80
2019-04-21T18:29:09.478Z,22.70
2019-04-21T18:31:42.706Z,22.70
2019-04-21T18:34:11.058Z,22.60
2019-04-21T18:36:41.215Z,22.60
2019-04-21T18:39:27.299Z,22.60
2019-04-21T18:41:43.945Z,22.40
2019-04-21T18:44:43.229Z,22.30
2019-04-21T18:47:16.559Z,22.30
2019-04-21T18:49:29.138Z,22.20
2019-04-21T18:52:22.269Z,22.20
2019-04-21T18:55:00.142Z,22.20
2019-04-21T18:57:22.042Z,22.10
2019-04-21T18:59:40.266Z,22.00
2019-04-21T19:02:10.121Z,21.80
2019-04-21T19:04:37.125Z,21.90
2019-04-21T19:07:18.037Z,21.80
2019-04-21T19:10:14.447Z,21.80
2019-04-21T19:12:23.661Z,21.60
2019-04-21T19:22:09.083Z,21.40
2019-04-21T19:24:41.366Z,21.30
2019-04-21T19:29:40.396Z,21.30
2019-04-21T19:32:01.911Z,21.20
2019-04-21T19:34:21.126Z,21.20
2019-04-21T19:36:49.565Z,21.10
2019-04-21T19:39:16.133Z,21.00
2019-04-21T19:41:50.806Z,21.00
2019-04-21T19:44:21.715Z,20.90
2019-04-21T19:46:56.000Z,20.90
2019-04-21T19:49:26.778Z,20.80
2019-04-21T19:51:44.010Z,20.70
2019-04-21T19:54:11.033Z,20.70
2019-04-21T19:56:27.942Z,20.60
2019-04-21T19:58:54.993Z,20.60
2019-04-21T20:01:21.566Z,20.50
2019-04-21T20:03:52.157Z,20.50
2019-04-21T20:06:33.101Z,20.40
2019-04-21T20:09:05.683Z,20.40
2019-04-21T20:11:30.782Z,20.20
2019-04-21T20:14:18.878Z,20.20
2019-04-21T20:16:33.907Z,20.20
2019-04-21T20:18:44.149Z,20.30
2019-04-21T20:21:05.969Z,20.20
2019-04-21T20:23:37.394Z,20.10
2019-04-21T20:26:02.409Z,20.10
2019-04-21T20:28:42.728Z,19.90
2019-04-21T20:31:23.839Z,19.80
2019-04-21T20:33:55.216Z,19.70
2019-04-21T20:36:20.108Z,19.80
2019-04-21T20:38:33.939Z,19.80
2019-04-21T20:40:59.244Z,19.60
2019-04-21T20:43:36.571Z,19.60
2019-04-21T20:46:02.343Z,19.60
2019-04-21T20:48:23.754Z,19.60
2019-04-21T20:51:00.639Z,19.70
2019-04-21T20:53:29.106Z,19.60
2019-04-21T20:55:52.882Z,19.70
2019-04-21T20:58:23.914Z,19.80
2019-04-21T21:01:19.000Z,19.70
2019-04-21T21:03:24.678Z,19.70
2019-04-21T21:05:46.089Z,19.60
2019-04-21T21:08:18.038Z,19.70
2019-04-21T21:10:38.868Z,19.70
2019-04-21T21:13:20.423Z,19.70
2019-04-21T21:15:36.401Z,19.60
2019-04-21T21:18:15.717Z,19.50
2019-04-21T21:20:35.238Z,19.50
2019-04-21T21:23:01.357Z,19.40
2019-04-21T21:25:41.736Z,19.30
2019-04-21T21:27:53.282Z,19.30
2019-04-21T21:30:26.542Z,19.20
2019-04-21T21:32:54.416Z,19.20
2019-04-21T21:35:21.505Z,19.00
2019-04-21T21:37:54.795Z,18.80
2019-04-21T21:40:28.685Z,18.70
2019-04-21T21:42:40.350Z,18.80
2019-04-21T21:45:12.636Z,18.70
2019-04-21T21:47:53.641Z,18.60
2019-04-21T21:50:11.626Z,18.50
2019-04-21T21:52:44.972Z,18.30
2019-04-21T21:54:58.091Z,18.30
2019-04-21T21:57:24.329Z,18.20
2019-04-21T21:59:52.925Z,18.00
2019-04-21T22:02:31.067Z,17.90
2019-04-21T22:04:56.904Z,17.80
2019-04-21T22:07:17.783Z,17.60
2019-04-21T22:09:44.307Z,17.60
2019-04-21T22:12:12.071Z,17.50
2019-04-21T22:14:44.828Z,17.50
2019-04-21T22:17:21.442Z,17.50
2019-04-21T22:19:58.069Z,17.50
2019-04-21T22:22:17.877Z,17.50
2019-04-21T22:24:46.666Z,17.30
2019-04-21T22:27:01.064Z,17.30
2019-04-21T22:29:35.100Z,17.30
2019-04-21T22:32:02.760Z,17.30
2019-04-21T22:34:31.460Z,17.10
2019-04-21T22:37:01.564Z,17.10
2019-04-21T22:39:42.065Z,17.10
2019-04-21T22:41:58.516Z,17.00
2019-04-21T22:44:16.563Z,17.10
2019-04-21T22:46:54.834Z,17.10
2019-04-21T22:49:12.723Z,17.00
2019-04-21T22:51:43.989Z,16.80
2019-04-21T22:54:08.240Z,16.80
2019-04-21T22:56:36.091Z,16.60
2019-04-21T22:59:08.475Z,16.70
2019-04-21T23:01:36.031Z,16.70
2019-04-21T23:04:02.548Z,16.70
2019-04-21T23:06:30.840Z,16.80
2019-04-21T23:08:55.155Z,16.90
2019-04-21T23:11:21.593Z,16.90
2019-04-21T23:13:55.676Z,16.80
2019-04-21T23:16:21.463Z,16.80
2019-04-21T23:18:59.716Z,16.80
2019-04-21T23:21:27.797Z,16.80
2019-04-21T23:24:00.364Z,16.70
2019-04-21T23:26:26.142Z,16.50
2019-04-21T23:28:58.522Z,16.50
2019-04-21T23:31:30.486Z,16.30
2019-04-21T23:33:34.643Z,16.30
2019-04-21T23:36:09.677Z,16.20
2019-04-21T23:38:36.819Z,16.10
2019-04-21T23:41:01.696Z,16.00
2019-04-21T23:43:29.156Z,15.90
2019-04-21T23:45:54.015Z,15.90
2019-04-21T23:48:32.394Z,15.90
2019-04-21T23:50:54.711Z,15.80
2019-04-21T23:53:17.369Z,15.80
2019-04-21T23:55:43.657Z,15.70
2019-04-21T23:58:16.369Z,15.70
